createdAt,value
2022-10-22T00:01:54.397Z,88.83
2022-10-22T00:06:56.210Z,88.54
2022-10-22T00:11:57.811Z,88.11
2022-10-22T00:17:01.063Z,88.14
2022-10-22T00:22:05.669Z,88.13
2022-10-22T00:27:09.131Z,88.19
2022-10-22T00:32:11.046Z,88.55
2022-10-22T00:37:12.686Z,88.62
2022-10-22T00:42:20.642Z,88.84
2022-10-22T00:47:23.217Z,88.93
2022-10-22T00:52:25.182Z,88.99
2022-10-22T00:57:27.624Z,89.18
2022-10-22T01:02:29.270Z,89.10
2022-10-22T01:07:31.309Z,89.22
2022-10-22T01:12:45.285Z,89.11
2022-10-22T01:17:55.911Z,88.88
2022-10-22T01:23:21.353Z,88.47
2022-10-22T01:28:41.683Z,88.55
2022-10-22T01:33:44.914Z,88.47
2022-10-22T01:38:47.184Z,88.28
2022-10-22T01:43:49.254Z,87.87
2022-10-22T01:49:03.192Z,87.58
2022-10-22T01:54:32.027Z,87.80
2022-10-22T01:59:54.983Z,87.62
2022-10-22T02:05:24.772Z,87.90
2022-10-22T02:10:27.434Z,87.62
2022-10-22T02:15:29.842Z,87.53
2022-10-22T02:20:33.630Z,87.78
2022-10-22T02:25:37.198Z,87.99
2022-10-22T02:30:42.653Z,88.08
2022-10-22T02:35:44.690Z,88.18
2022-10-22T02:40:46.707Z,87.90
2022-10-22T02:45:48.627Z,88.04
2022-10-22T02:50:50.215Z,88.04
2022-10-22T02:55:51.801Z,87.96
2022-10-22T03:00:53.578Z,88.45
2022-10-22T03:05:55.194Z,87.91
2022-10-22T03:10:56.782Z,87.80
2022-10-22T03:15:58.374Z,87.71
2022-10-22T03:21:32.555Z,87.80
2022-10-22T03:26:34.276Z,87.26
2022-10-22T03:31:35.912Z,87.63
2022-10-22T03:36:38.096Z,87.46
2022-10-22T03:41:39.695Z,87.81
2022-10-22T03:46:41.664Z,87.90
2022-10-22T03:51:43.423Z,87.78
2022-10-22T03:56:45.053Z,87.79
2022-10-22T04:01:46.651Z,87.89
2022-10-22T04:06:48.277Z,87.66
2022-10-22T04:11:49.895Z,87.91
2022-10-22T04:16:51.506Z,88.27
2022-10-22T04:21:53.145Z,88.49
2022-10-22T04:26:55.535Z,88.17
2022-10-22T04:31:57.173Z,88.35
2022-10-22T04:36:58.886Z,88.38
2022-10-22T04:42:00.560Z,88.17
2022-10-22T04:47:02.269Z,87.85
2022-10-22T04:52:03.965Z,88.02
2022-10-22T04:57:05.608Z,88.10
2022-10-22T05:02:07.245Z,87.86
2022-10-22T05:07:08.886Z,87.88
2022-10-22T05:12:10.498Z,87.90
2022-10-22T05:17:12.170Z,87.84
2022-10-22T05:22:13.755Z,87.99
2022-10-22T05:27:15.368Z,88.24
2022-10-22T05:32:16.989Z,88.35
2022-10-22T05:37:18.613Z,88.47
2022-10-22T05:42:20.187Z,88.21
2022-10-22T05:47:21.993Z,88.08
2022-10-22T05:52:24.407Z,87.71
2022-10-22T05:57:26.011Z,87.42
2022-10-22T06:02:27.710Z,87.29
2022-10-22T06:07:29.362Z,87.15
2022-10-22T06:12:30.969Z,87.13
2022-10-22T06:17:32.635Z,87.06
2022-10-22T06:22:34.328Z,86.76
2022-10-22T06:27:35.917Z,86.88
2022-10-22T06:32:37.667Z,86.52
2022-10-22T06:37:39.854Z,86.36
2022-10-22T06:42:41.952Z,86.30
2022-10-22T06:47:44.110Z,86.55
2022-10-22T06:52:45.891Z,86.52
2022-10-22T06:57:47.530Z,86.41
2022-10-22T07:02:56.459Z,86.13
2022-10-22T07:08:00.846Z,86.14
2022-10-22T07:13:02.555Z,86.18
2022-10-22T07:18:04.766Z,86.12
2022-10-22T07:23:06.381Z,86.12
2022-10-22T07:28:08.230Z,85.99
2022-10-22T07:33:10.063Z,86.08
2022-10-22T07:38:11.688Z,86.17
2022-10-22T07:43:13.272Z,86.66
2022-10-22T07:48:15.337Z,87.82
2022-10-22T07:53:17.833Z,88.27
2022-10-22T07:58:19.937Z,89.16
2022-10-22T08:03:21.558Z,89.83
2022-10-22T08:08:25.943Z,90.41
2022-10-22T08:13:30.715Z,91.31
2022-10-22T08:18:32.414Z,92.30
2022-10-22T08:23:34.447Z,93.68
2022-10-22T08:28:37.171Z,93.86
2022-10-22T08:33:39.460Z,93.07
2022-10-22T08:38:41.058Z,92.87
2022-10-22T08:44:19.824Z,93.21
2022-10-22T08:49:26.787Z,92.99
2022-10-22T08:54:37.873Z,92.58
2022-10-22T08:59:52.792Z,92.17
2022-10-22T09:05:02.692Z,91.74
2022-10-22T09:10:06.108Z,91.87
2022-10-22T09:15:13.592Z,91.89
2022-10-22T09:20:33.358Z,91.58
2022-10-22T09:25:37.226Z,91.20
2022-10-22T09:30:39.933Z,90.40
2022-10-22T09:35:51.434Z,89.73
2022-10-22T09:40:55.398Z,88.37
2022-10-22T09:46:03.110Z,88.16
2022-10-22T09:51:16.871Z,88.21
2022-10-22T09:56:29.415Z,87.47
2022-10-22T10:01:38.616Z,86.44
2022-10-22T10:06:42.914Z,87.00
2022-10-22T10:12:02.835Z,86.76
2022-10-22T10:17:13.523Z,85.91
2022-10-22T10:22:33.759Z,85.95
2022-10-22T10:27:38.807Z,84.82
2022-10-22T10:33:06.089Z,84.15
2022-10-22T10:38:17.538Z,84.80
2022-10-22T10:43:29.998Z,85.19
2022-10-22T10:48:57.032Z,84.94
2022-10-22T10:53:58.615Z,84.56
2022-10-22T10:59:10.050Z,83.67
2022-10-22T11:04:23.835Z,82.29
2022-10-22T11:09:28.906Z,81.76
2022-10-22T11:14:37.538Z,83.09
2022-10-22T11:19:53.775Z,82.77
2022-10-22T11:25:12.844Z,83.37
2022-10-22T11:30:20.385Z,83.65
2022-10-22T11:35:28.330Z,83.76
2022-10-22T11:40:32.373Z,83.18
2022-10-22T11:45:37.499Z,80.86
2022-10-22T11:50:53.041Z,77.41
2022-10-22T11:56:27.304Z,77.47
2022-10-22T12:01:41.897Z,76.50
2022-10-22T12:06:55.381Z,76.50
2022-10-22T12:12:04.330Z,76.15
2022-10-22T12:17:12.253Z,76.31
2022-10-22T12:22:28.166Z,76.40
2022-10-22T12:27:41.069Z,76.73
2022-10-22T12:32:42.975Z,76.40
2022-10-22T12:37:44.989Z,75.01
2022-10-22T12:42:48.988Z,74.79
2022-10-22T12:47:53.023Z,74.04
2022-10-22T12:52:55.696Z,74.25
2022-10-22T12:57:57.413Z,74.65
2022-10-22T13:03:01.699Z,74.10
2022-10-22T13:08:09.077Z,69.99
2022-10-22T13:13:45.660Z,68.62
2022-10-22T13:18:48.018Z,68.32
2022-10-22T13:23:55.126Z,68.60
2022-10-22T13:29:02.906Z,68.99
2022-10-22T13:34:11.775Z,69.03
2022-10-22T13:39:22.968Z,69.25
2022-10-22T13:44:25.411Z,69.27
2022-10-22T13:49:29.826Z,68.98
2022-10-22T13:54:34.899Z,69.00
2022-10-22T13:59:36.636Z,68.61
2022-10-22T14:04:40.358Z,67.84
2022-10-22T14:09:46.860Z,68.12
2022-10-22T14:14:48.503Z,68.47
2022-10-22T14:19:50.226Z,68.61
2022-10-22T14:24:52.552Z,69.32
2022-10-22T14:29:59.312Z,69.98
2022-10-22T14:35:03.977Z,70.44
2022-10-22T14:40:08.698Z,70.84
2022-10-22T14:45:21.080Z,70.03
2022-10-22T14:50:26.062Z,69.84
2022-10-22T14:55:36.366Z,70.41
2022-10-22T15:00:41.607Z,70.89
2022-10-22T15:05:46.609Z,70.74
2022-10-22T15:11:03.759Z,69.67
2022-10-22T15:16:13.607Z,69.64
2022-10-22T15:21:17.481Z,70.06
2022-10-22T15:26:19.114Z,70.37
2022-10-22T15:31:43.296Z,71.07
2022-10-22T15:36:44.890Z,71.76
2022-10-22T15:41:47.322Z,72.50
2022-10-22T15:46:54.777Z,73.11
2022-10-22T15:52:20.571Z,73.82
2022-10-22T15:57:24.263Z,74.44
2022-10-22T16:02:25.883Z,75.24
2022-10-22T16:07:27.489Z,75.87
2022-10-22T16:12:29.276Z,76.45
2022-10-22T16:17:30.881Z,77.38
2022-10-22T16:22:33.462Z,78.62
2022-10-22T16:27:35.122Z,79.30
2022-10-22T16:32:36.712Z,79.93
2022-10-22T16:37:39.222Z,80.31
2022-10-22T16:42:42.489Z,81.25
2022-10-22T16:47:46.891Z,81.62
2022-10-22T16:52:48.477Z,82.36
2022-10-22T16:57:53.467Z,82.38
2022-10-22T17:02:55.197Z,82.67
2022-10-22T17:07:56.786Z,83.36
2022-10-22T17:12:58.437Z,83.93
2022-10-22T17:18:00.549Z,85.53
2022-10-22T17:23:02.144Z,86.23
2022-10-22T17:28:03.853Z,87.06
2022-10-22T17:33:06.782Z,87.46
2022-10-22T17:38:10.904Z,87.52
2022-10-22T17:43:12.495Z,87.66
2022-10-22T17:48:14.095Z,87.87
2022-10-22T17:53:15.707Z,88.15
2022-10-22T17:58:17.634Z,88.15
2022-10-22T18:03:19.623Z,88.15
2022-10-22T18:08:24.073Z,88.06
2022-10-22T18:13:25.785Z,87.73
2022-10-22T18:18:27.566Z,87.88
2022-10-22T18:23:29.232Z,88.69
2022-10-22T18:28:30.865Z,89.20
2022-10-22T18:33:32.873Z,89.48
2022-10-22T18:38:34.935Z,89.78
2022-10-22T18:43:37.068Z,90.06
2022-10-22T18:48:38.735Z,90.05
2022-10-22T18:53:40.700Z,90.05
2022-10-22T18:58:46.107Z,90.17
2022-10-22T19:03:49.774Z,90.19
2022-10-22T19:08:51.563Z,89.90
2022-10-22T19:13:53.955Z,89.96
2022-10-22T19:19:06.809Z,90.08
2022-10-22T19:24:09.934Z,90.46
2022-10-22T19:29:11.684Z,90.81
2022-10-22T19:34:17.605Z,91.06
2022-10-22T19:39:19.338Z,90.89
2022-10-22T19:44:21.004Z,90.69
2022-10-22T19:49:23.133Z,89.93
2022-10-22T19:54:28.323Z,89.30
2022-10-22T19:59:32.078Z,88.57
2022-10-22T20:04:37.090Z,87.72
2022-10-22T20:09:38.728Z,86.75
2022-10-22T20:14:40.469Z,85.47
2022-10-22T20:19:42.131Z,84.79
2022-10-22T20:24:44.637Z,84.67
2022-10-22T20:29:46.244Z,84.88
2022-10-22T20:34:47.854Z,85.26
2022-10-22T20:39:50.074Z,85.73
2022-10-22T20:44:51.657Z,86.93
2022-10-22T20:49:53.367Z,87.16
2022-10-22T20:54:54.951Z,87.51
2022-10-22T20:59:57.494Z,87.59
2022-10-22T21:04:59.176Z,87.56
2022-10-22T21:10:00.837Z,87.71
2022-10-22T21:15:02.531Z,88.11
2022-10-22T21:20:04.498Z,88.17
2022-10-22T21:25:06.567Z,88.02
2022-10-22T21:30:08.566Z,88.03
2022-10-22T21:35:10.161Z,88.72
2022-10-22T21:40:12.252Z,88.75
2022-10-22T21:45:16.455Z,89.11
2022-10-22T21:50:20.369Z,89.39
2022-10-22T21:55:24.054Z,89.48
2022-10-22T22:00:25.940Z,89.32
2022-10-22T22:05:28.343Z,88.95
2022-10-22T22:10:30.049Z,89.09
2022-10-22T22:15:31.701Z,89.32
2022-10-22T22:20:33.378Z,89.33
2022-10-22T22:25:35.116Z,89.58
2022-10-22T22:30:36.830Z,89.23
2022-10-22T22:40:41.269Z,90.13
2022-10-22T22:45:42.884Z,90.58
2022-10-22T22:50:44.529Z,90.71
2022-10-22T22:55:46.164Z,91.07
2022-10-22T23:00:48.181Z,90.95
2022-10-22T23:05:49.905Z,91.08
2022-10-22T23:10:51.510Z,91.29
2022-10-22T23:15:53.103Z,91.55
2022-10-22T23:20:54.705Z,91.05
2022-10-22T23:25:56.366Z,91.73
2022-10-22T23:30:58.078Z,91.48
2022-10-22T23:36:02.973Z,91.81
2022-10-22T23:41:04.754Z,92.04
2022-10-22T23:46:08.503Z,91.98
2022-10-22T23:51:15.234Z,91.72
2022-10-22T23:56:18.063Z,91.74
